createdAt,value
2022-12-25T00:00:45.265Z,11.60
2022-12-25T00:03:14.608Z,11.70
2022-12-25T00:05:42.052Z,11.70
2022-12-25T00:08:09.822Z,11.70
2022-12-25T00:10:44.573Z,11.70
2022-12-25T00:13:14.056Z,11.60
2022-12-25T00:15:42.390Z,11.60
2022-12-25T00:18:09.452Z,11.50
2022-12-25T00:20:36.637Z,11.50
2022-12-25T00:23:03.819Z,11.50
2022-12-25T00:25:30.981Z,11.30
2022-12-25T00:27:58.884Z,11.20
2022-12-25T00:30:26.685Z,11.20
2022-12-25T00:32:55.444Z,11.20
2022-12-25T00:35:22.544Z,11.20
2022-12-25T00:37:51.155Z,11.20
2022-12-25T00:40:18.216Z,11.20
2022-12-25T00:42:49.393Z,11.10
2022-12-25T00:45:16.571Z,11.10
2022-12-25T00:47:45.982Z,11.00
2022-12-25T00:50:14.167Z,11.00
2022-12-25T00:52:42.273Z,11.00
2022-12-25T00:55:11.968Z,10.90
2022-12-25T00:57:39.103Z,10.90
2022-12-25T01:00:08.030Z,10.90
2022-12-25T01:02:35.333Z,10.90
2022-12-25T01:05:02.647Z,10.90
2022-12-25T01:07:29.652Z,10.80
2022-12-25T01:10:16.600Z,10.80
2022-12-25T01:12:44.054Z,10.80
2022-12-25T01:15:11.492Z,10.90
2022-12-25T01:17:38.471Z,11.00
2022-12-25T01:20:11.088Z,11.00
2022-12-25T01:22:38.137Z,11.00
2022-12-25T01:25:05.908Z,11.00
2022-12-25T01:27:39.231Z,11.10
2022-12-25T01:30:09.437Z,11.10
2022-12-25T01:32:39.364Z,11.00
2022-12-25T01:35:12.220Z,10.90
2022-12-25T01:37:40.300Z,10.80
2022-12-25T01:40:07.557Z,10.80
2022-12-25T01:42:36.816Z,10.80
2022-12-25T01:45:23.118Z,10.80
2022-12-25T01:47:51.102Z,10.90
2022-12-25T01:50:18.234Z,10.90
2022-12-25T01:52:47.869Z,10.90
2022-12-25T01:55:15.244Z,10.80
2022-12-25T01:57:42.586Z,10.60
2022-12-25T02:00:10.000Z,10.50
2022-12-25T02:02:37.506Z,10.50
2022-12-25T02:05:04.917Z,10.50
2022-12-25T02:07:33.377Z,10.50
2022-12-25T02:10:00.594Z,10.40
2022-12-25T02:12:28.899Z,10.40
2022-12-25T02:15:02.823Z,10.40
2022-12-25T02:17:51.324Z,10.30
2022-12-25T02:20:28.930Z,10.20
2022-12-25T02:23:14.985Z,10.20
2022-12-25T02:26:00.544Z,10.30
2022-12-25T02:28:33.178Z,10.30
2022-12-25T02:31:08.625Z,10.40
2022-12-25T02:34:00.414Z,10.40
2022-12-25T02:36:27.865Z,10.30
2022-12-25T02:39:14.681Z,10.40
2022-12-25T02:41:42.020Z,10.40
2022-12-25T02:44:29.194Z,10.40
2022-12-25T02:47:14.952Z,10.40
2022-12-25T02:50:00.944Z,10.40
2022-12-25T02:52:46.912Z,10.10
2022-12-25T02:55:33.949Z,9.90
2022-12-25T02:58:21.160Z,9.90
2022-12-25T03:01:07.555Z,9.90
2022-12-25T03:03:53.767Z,9.80
2022-12-25T03:06:39.450Z,9.60
2022-12-25T03:09:29.822Z,9.60
2022-12-25T03:12:01.943Z,9.60
2022-12-25T03:14:47.904Z,9.80
2022-12-25T03:17:15.164Z,9.70
2022-12-25T03:20:00.689Z,9.80
2022-12-25T03:22:49.941Z,9.90
2022-12-25T03:25:35.790Z,9.90
2022-12-25T03:28:02.817Z,10.00
2022-12-25T03:31:07.164Z,10.00
2022-12-25T03:34:09.381Z,10.00
2022-12-25T03:36:39.264Z,9.90
2022-12-25T03:39:30.174Z,9.90
2022-12-25T03:42:17.820Z,9.80
2022-12-25T03:44:55.701Z,9.70
2022-12-25T03:47:51.863Z,9.70
2022-12-25T03:50:58.075Z,9.80
2022-12-25T03:53:44.928Z,9.90
2022-12-25T03:56:31.320Z,9.90
2022-12-25T03:59:23.111Z,9.80
2022-12-25T04:02:09.161Z,9.70
2022-12-25T04:04:55.037Z,9.70
2022-12-25T04:07:40.772Z,9.70
2022-12-25T04:10:26.372Z,9.60
2022-12-25T04:13:12.059Z,9.70
2022-12-25T04:15:57.795Z,9.70
2022-12-25T04:18:43.577Z,9.70
2022-12-25T04:21:29.117Z,9.50
2022-12-25T04:24:14.889Z,9.30
2022-12-25T04:27:00.677Z,9.30
2022-12-25T04:29:46.333Z,9.40
2022-12-25T04:32:32.182Z,9.40
2022-12-25T04:35:17.735Z,9.40
2022-12-25T04:37:47.264Z,9.50
2022-12-25T04:40:14.623Z,9.40
2022-12-25T04:42:41.829Z,9.40
2022-12-25T04:45:09.384Z,9.40
2022-12-25T04:47:36.540Z,9.40
2022-12-25T04:50:03.727Z,9.40
2022-12-25T04:52:34.719Z,9.30
2022-12-25T04:55:01.905Z,9.00
2022-12-25T04:57:28.881Z,8.80
2022-12-25T04:59:55.910Z,8.70
2022-12-25T05:02:23.084Z,8.70
2022-12-25T05:04:50.198Z,8.80
2022-12-25T05:07:17.320Z,8.90
2022-12-25T05:09:44.289Z,9.00
2022-12-25T05:12:11.438Z,9.10
2022-12-25T05:14:40.657Z,9.20
2022-12-25T05:17:08.954Z,9.20
2022-12-25T05:19:36.022Z,9.20
2022-12-25T05:22:03.012Z,9.20
2022-12-25T05:24:30.191Z,9.30
2022-12-25T05:27:00.295Z,9.20
2022-12-25T05:29:27.249Z,9.20
2022-12-25T05:31:54.228Z,9.20
2022-12-25T05:34:23.790Z,9.00
2022-12-25T05:36:50.808Z,8.90
2022-12-25T05:39:17.759Z,8.70
2022-12-25T05:41:47.971Z,8.80
2022-12-25T05:44:15.124Z,8.80
2022-12-25T05:46:42.431Z,8.90
2022-12-25T05:49:09.483Z,9.00
2022-12-25T05:51:36.652Z,9.00
2022-12-25T05:54:03.993Z,9.00
2022-12-25T05:56:31.074Z,9.00
2022-12-25T05:58:57.973Z,9.00
2022-12-25T06:01:25.709Z,9.00
2022-12-25T06:03:53.432Z,9.00
2022-12-25T06:06:20.466Z,8.90
2022-12-25T06:08:47.755Z,8.90
2022-12-25T06:11:15.819Z,9.10
2022-12-25T06:13:42.987Z,9.10
2022-12-25T06:16:13.803Z,9.10
2022-12-25T06:18:41.864Z,8.90
2022-12-25T06:21:09.170Z,8.80
2022-12-25T06:23:36.644Z,8.80
2022-12-25T06:26:06.069Z,8.80
2022-12-25T06:28:33.078Z,8.90
2022-12-25T06:31:00.099Z,9.00
2022-12-25T06:33:29.039Z,9.10
2022-12-25T06:35:55.958Z,9.00
2022-12-25T06:38:23.834Z,9.10
2022-12-25T06:40:50.987Z,9.10
2022-12-25T06:43:18.804Z,9.20
2022-12-25T06:45:48.353Z,9.10
2022-12-25T06:48:15.474Z,9.00
2022-12-25T06:50:43.987Z,9.10
2022-12-25T06:53:11.304Z,9.10
2022-12-25T06:55:38.359Z,9.20
2022-12-25T06:58:05.754Z,9.30
2022-12-25T07:00:33.013Z,9.30
2022-12-25T07:03:00.225Z,9.30
2022-12-25T07:05:27.603Z,9.40
2022-12-25T07:07:55.103Z,9.40
2022-12-25T07:10:22.802Z,9.50
2022-12-25T07:12:50.423Z,9.60
2022-12-25T07:15:17.704Z,9.70
2022-12-25T07:17:44.904Z,9.70
2022-12-25T07:20:11.952Z,9.70
2022-12-25T07:22:39.013Z,9.80
2022-12-25T07:25:08.638Z,9.70
2022-12-25T07:27:36.154Z,9.40
2022-12-25T07:30:03.519Z,9.30
2022-12-25T07:32:31.355Z,9.20
2022-12-25T07:34:58.495Z,9.20
2022-12-25T07:37:25.818Z,9.30
2022-12-25T07:39:53.889Z,9.30
2022-12-25T07:42:25.137Z,9.30
2022-12-25T07:44:52.736Z,9.40
2022-12-25T07:47:19.904Z,9.40
2022-12-25T07:49:46.998Z,9.50
2022-12-25T07:52:14.319Z,9.50
2022-12-25T07:54:41.476Z,9.60
2022-12-25T07:57:08.788Z,9.50
2022-12-25T07:59:36.157Z,9.70
2022-12-25T08:02:03.515Z,9.80
2022-12-25T08:04:31.106Z,9.80
2022-12-25T08:06:59.992Z,9.90
2022-12-25T08:09:28.972Z,9.90
2022-12-25T08:11:56.537Z,9.90
2022-12-25T08:14:23.592Z,9.90
2022-12-25T08:16:50.973Z,9.80
2022-12-25T08:19:18.916Z,9.80
2022-12-25T08:21:46.175Z,9.90
2022-12-25T08:24:13.311Z,10.00
2022-12-25T08:26:40.661Z,10.00
2022-12-25T08:29:08.452Z,10.10
2022-12-25T08:31:39.452Z,10.20
2022-12-25T08:34:10.031Z,10.30
2022-12-25T08:36:38.784Z,10.30
2022-12-25T08:39:06.074Z,10.40
2022-12-25T08:41:33.385Z,10.40
2022-12-25T08:44:00.935Z,10.50
2022-12-25T08:46:28.064Z,10.60
2022-12-25T08:48:56.997Z,10.70
2022-12-25T08:51:25.045Z,10.80
2022-12-25T08:53:52.543Z,10.90
2022-12-25T08:56:20.916Z,11.10
2022-12-25T08:58:47.956Z,11.20
2022-12-25T09:01:15.690Z,11.20
2022-12-25T09:03:44.052Z,11.20
2022-12-25T09:06:14.161Z,11.30
2022-12-25T09:08:48.000Z,11.30
2022-12-25T09:11:16.309Z,11.30
2022-12-25T09:13:49.307Z,11.40
2022-12-25T09:16:17.895Z,11.60
2022-12-25T09:18:45.236Z,11.70
2022-12-25T09:21:13.069Z,11.80
2022-12-25T09:23:40.893Z,11.90
2022-12-25T09:26:21.675Z,12.10
2022-12-25T09:28:52.742Z,12.50
2022-12-25T09:31:26.148Z,12.80
2022-12-25T09:34:04.000Z,12.90
2022-12-25T09:36:35.761Z,13.20
2022-12-25T09:39:04.577Z,13.50
2022-12-25T09:41:40.757Z,13.80
2022-12-25T09:44:12.363Z,14.00
2022-12-25T09:46:40.636Z,14.10
2022-12-25T09:49:28.301Z,14.30
2022-12-25T09:51:58.164Z,14.60
2022-12-25T09:54:29.698Z,14.90
2022-12-25T09:56:56.705Z,15.10
2022-12-25T09:59:29.730Z,16.10
2022-12-25T10:01:57.642Z,17.80
2022-12-25T10:04:28.135Z,19.70
2022-12-25T10:06:55.419Z,21.30
2022-12-25T10:09:35.467Z,22.70
2022-12-25T10:12:07.283Z,23.80
2022-12-25T10:14:36.808Z,24.80
2022-12-25T10:17:14.151Z,25.80
2022-12-25T10:19:44.691Z,26.80
2022-12-25T10:22:17.938Z,27.60
2022-12-25T10:24:55.568Z,28.20
2022-12-25T10:27:34.946Z,28.70
2022-12-25T10:30:05.231Z,29.20
2022-12-25T10:32:37.898Z,29.70
2022-12-25T10:35:05.801Z,30.30
2022-12-25T10:37:34.483Z,30.80
2022-12-25T10:40:02.384Z,31.30
2022-12-25T10:42:43.284Z,31.80
2022-12-25T10:45:11.176Z,32.10
2022-12-25T10:47:41.840Z,32.40
2022-12-25T10:50:11.112Z,32.60
2022-12-25T10:52:48.172Z,32.70
2022-12-25T10:55:23.535Z,32.90
2022-12-25T10:57:55.437Z,33.30
2022-12-25T11:00:23.446Z,33.70
2022-12-25T11:02:51.817Z,33.80
2022-12-25T11:05:43.423Z,34.00
2022-12-25T11:08:17.356Z,34.20
2022-12-25T11:10:44.636Z,33.50
2022-12-25T11:13:20.000Z,32.90
2022-12-25T11:16:23.524Z,30.80
2022-12-25T11:19:24.512Z,28.20
2022-12-25T11:21:53.911Z,25.90
2022-12-25T11:24:21.846Z,24.10
2022-12-25T11:26:50.450Z,23.00
2022-12-25T11:29:23.645Z,22.20
2022-12-25T11:31:51.323Z,21.50
2022-12-25T11:34:23.614Z,21.00
2022-12-25T11:36:51.792Z,20.50
2022-12-25T11:39:30.211Z,20.00
2022-12-25T11:42:02.845Z,19.40
2022-12-25T11:44:49.862Z,18.90
2022-12-25T11:50:22.765Z,18.50
2022-12-25T11:52:49.924Z,18.50
2022-12-25T11:55:32.159Z,18.50
2022-12-25T11:58:01.293Z,18.50
2022-12-25T12:00:34.000Z,18.50
2022-12-25T12:03:07.046Z,18.50
2022-12-25T12:05:45.529Z,18.40
2022-12-25T12:08:17.487Z,18.20
2022-12-25T12:11:04.646Z,18.00
2022-12-25T12:13:40.805Z,18.00
2022-12-25T12:16:09.694Z,19.30
2022-12-25T12:18:37.387Z,21.70
2022-12-25T12:21:18.427Z,23.70
2022-12-25T12:24:04.255Z,25.40
2022-12-25T12:26:36.964Z,26.90
2022-12-25T12:29:05.216Z,27.90
2022-12-25T12:31:40.133Z,28.60
2022-12-25T12:34:13.133Z,29.30
2022-12-25T12:36:40.889Z,29.60
2022-12-25T12:39:08.501Z,30.10
2022-12-25T12:41:47.095Z,30.30
2022-12-25T12:44:14.826Z,30.70
2022-12-25T12:46:51.644Z,31.00
2022-12-25T12:49:24.555Z,31.00
2022-12-25T12:52:13.748Z,31.00
2022-12-25T12:55:13.416Z,31.10
2022-12-25T12:57:42.194Z,31.50
2022-12-25T13:00:27.332Z,31.70
2022-12-25T13:03:08.551Z,31.70
2022-12-25T13:05:48.604Z,31.70
2022-12-25T13:08:25.227Z,31.60
2022-12-25T13:10:54.265Z,31.50
2022-12-25T13:13:23.388Z,31.60
2022-12-25T13:15:52.777Z,31.70
2022-12-25T13:18:21.115Z,31.80
2022-12-25T13:20:55.944Z,31.90
2022-12-25T13:23:27.738Z,31.90
2022-12-25T13:25:55.984Z,31.80
2022-12-25T13:28:30.716Z,31.80
2022-12-25T13:31:07.183Z,31.70
2022-12-25T13:33:37.514Z,31.70
2022-12-25T13:36:05.400Z,31.50
2022-12-25T13:38:33.816Z,31.40
2022-12-25T13:41:21.790Z,31.10
2022-12-25T13:43:49.260Z,30.70
2022-12-25T13:46:17.233Z,30.60
2022-12-25T13:48:50.713Z,30.40
2022-12-25T13:51:31.825Z,30.20
2022-12-25T13:54:39.257Z,29.90
2022-12-25T13:57:23.333Z,29.70
2022-12-25T13:59:54.067Z,29.20
2022-12-25T14:02:28.924Z,28.40
2022-12-25T14:07:53.338Z,26.00
2022-12-25T14:16:29.297Z,22.90
2022-12-25T14:19:03.238Z,22.20
2022-12-25T14:24:57.681Z,21.10
2022-12-25T14:27:26.382Z,20.50
2022-12-25T14:29:54.592Z,20.40
2022-12-25T14:32:28.422Z,20.20
2022-12-25T14:35:08.757Z,20.10
2022-12-25T14:38:03.666Z,20.10
2022-12-25T14:40:32.927Z,20.10
2022-12-25T14:43:03.817Z,20.00
2022-12-25T14:45:36.208Z,19.90
2022-12-25T14:48:07.272Z,19.80
2022-12-25T14:50:39.717Z,19.70
2022-12-25T14:53:17.281Z,19.60
2022-12-25T14:55:49.218Z,19.60
2022-12-25T14:58:21.481Z,19.50
2022-12-25T15:00:55.883Z,19.40
2022-12-25T15:03:34.860Z,19.40
2022-12-25T15:06:22.766Z,19.30
2022-12-25T15:09:13.637Z,19.20
2022-12-25T15:11:48.731Z,19.10
2022-12-25T15:14:42.499Z,18.90
2022-12-25T15:17:36.025Z,18.90
2022-12-25T15:20:26.815Z,18.80
2022-12-25T15:23:20.125Z,18.60
2022-12-25T15:25:48.083Z,18.50
2022-12-25T15:28:18.744Z,18.40
2022-12-25T15:30:46.183Z,18.30
2022-12-25T15:33:14.164Z,18.20
2022-12-25T15:35:44.847Z,18.10
2022-12-25T15:38:13.648Z,17.80
2022-12-25T15:40:41.839Z,17.70
2022-12-25T15:43:38.854Z,17.60
2022-12-25T15:45:59.797Z,17.60
2022-12-25T15:48:27.361Z,17.60
2022-12-25T15:50:54.635Z,17.60
2022-12-25T15:53:22.197Z,17.60
2022-12-25T15:55:49.720Z,17.70
2022-12-25T15:58:17.194Z,17.70
2022-12-25T16:00:47.511Z,17.70
2022-12-25T16:03:14.785Z,17.70
2022-12-25T16:05:42.105Z,17.60
2022-12-25T16:08:09.564Z,17.60
2022-12-25T16:10:39.161Z,17.50
2022-12-25T16:13:07.727Z,17.50
2022-12-25T16:15:35.217Z,17.40
2022-12-25T16:18:02.539Z,17.40
2022-12-25T16:20:29.731Z,17.40
2022-12-25T16:22:56.893Z,17.30
2022-12-25T16:25:24.741Z,17.20
2022-12-25T16:27:51.972Z,17.10
2022-12-25T16:30:19.120Z,16.80
2022-12-25T16:32:50.149Z,16.90
2022-12-25T16:35:18.129Z,16.90
2022-12-25T16:37:45.400Z,17.00
2022-12-25T16:40:12.542Z,17.00
2022-12-25T16:42:39.795Z,16.90
2022-12-25T16:45:07.073Z,16.80
2022-12-25T16:47:37.402Z,16.70
2022-12-25T16:50:05.354Z,16.60
2022-12-25T16:52:33.107Z,16.30
2022-12-25T16:55:00.467Z,16.30
2022-12-25T16:57:28.950Z,16.40
2022-12-25T16:59:56.104Z,16.40
2022-12-25T17:02:23.414Z,16.50
2022-12-25T17:04:52.912Z,16.50
2022-12-25T17:07:22.955Z,16.50
2022-12-25T17:09:50.089Z,16.50
2022-12-25T17:12:17.249Z,16.50
2022-12-25T17:14:44.326Z,16.60
2022-12-25T17:17:11.483Z,16.70
2022-12-25T17:19:38.684Z,16.70
2022-12-25T17:22:06.926Z,16.70
2022-12-25T17:24:36.966Z,16.60
2022-12-25T17:27:10.287Z,16.70
2022-12-25T17:29:43.012Z,16.70
2022-12-25T17:32:11.891Z,16.70
2022-12-25T17:34:38.952Z,16.60
2022-12-25T17:37:06.221Z,16.60
2022-12-25T17:39:33.687Z,16.60
2022-12-25T17:42:02.024Z,16.50
2022-12-25T17:44:29.280Z,16.50
2022-12-25T17:46:59.820Z,16.40
2022-12-25T17:49:33.035Z,16.40
2022-12-25T17:52:03.260Z,16.30
2022-12-25T17:54:30.583Z,16.30
2022-12-25T17:56:57.740Z,16.30
2022-12-25T17:59:29.744Z,16.40
2022-12-25T18:01:58.207Z,16.40
2022-12-25T18:07:11.938Z,16.30
2022-12-25T18:09:43.168Z,16.30
2022-12-25T18:12:14.016Z,16.30
2022-12-25T18:14:43.356Z,16.30
2022-12-25T18:17:22.841Z,16.30
2022-12-25T18:19:53.667Z,16.20
2022-12-25T18:22:25.523Z,16.10
2022-12-25T18:24:53.018Z,16.10
2022-12-25T18:27:22.040Z,16.00
2022-12-25T18:29:51.232Z,15.90
2022-12-25T18:32:22.083Z,15.90
2022-12-25T18:34:55.152Z,15.70
2022-12-25T18:37:23.356Z,15.60
2022-12-25T18:39:51.629Z,15.60
2022-12-25T18:42:37.614Z,15.70
2022-12-25T18:45:05.051Z,15.80
2022-12-25T18:47:35.132Z,15.70
2022-12-25T18:50:04.848Z,15.50
2022-12-25T18:52:50.080Z,15.40
2022-12-25T18:55:18.746Z,15.50
2022-12-25T18:57:46.124Z,15.50
2022-12-25T19:00:13.380Z,15.60
2022-12-25T19:02:41.184Z,15.60
2022-12-25T19:07:52.604Z,15.30
2022-12-25T19:10:19.889Z,15.30
2022-12-25T19:12:47.318Z,15.30
2022-12-25T19:15:14.397Z,15.30
2022-12-25T19:17:43.896Z,15.40
2022-12-25T19:20:15.543Z,15.50
2022-12-25T19:22:42.803Z,15.40
2022-12-25T19:25:10.256Z,15.40
2022-12-25T19:27:37.685Z,15.40
2022-12-25T19:30:05.578Z,15.40
2022-12-25T19:32:32.625Z,15.40
2022-12-25T19:35:04.605Z,15.40
2022-12-25T19:37:31.790Z,15.40
2022-12-25T19:39:58.997Z,15.40
2022-12-25T19:42:27.691Z,15.30
2022-12-25T19:44:56.235Z,15.20
2022-12-25T19:47:23.364Z,15.20
2022-12-25T19:49:53.185Z,15.10
2022-12-25T19:52:21.282Z,15.10
2022-12-25T19:54:51.612Z,15.10
2022-12-25T19:57:19.293Z,15.10
2022-12-25T19:59:46.538Z,15.00
2022-12-25T20:02:13.847Z,14.90
2022-12-25T20:04:41.475Z,15.00
2022-12-25T20:07:08.896Z,15.10
2022-12-25T20:09:36.318Z,15.10
2022-12-25T20:12:04.367Z,15.10
2022-12-25T20:14:31.776Z,15.10
2022-12-25T20:16:59.416Z,15.10
2022-12-25T20:19:27.539Z,15.10
2022-12-25T20:21:56.066Z,15.00
2022-12-25T20:24:30.322Z,14.90
2022-12-25T20:26:59.454Z,15.00
2022-12-25T20:29:26.713Z,15.10
2022-12-25T20:31:54.010Z,15.10
2022-12-25T20:34:21.472Z,15.10
2022-12-25T20:36:49.691Z,15.10
2022-12-25T20:39:16.971Z,15.00
2022-12-25T20:41:44.447Z,15.00
2022-12-25T20:44:13.385Z,15.00
2022-12-25T20:46:41.228Z,15.00
2022-12-25T20:49:08.439Z,14.90
2022-12-25T20:51:35.704Z,14.90
2022-12-25T20:54:06.174Z,14.90
2022-12-25T20:56:33.651Z,14.90
2022-12-25T20:59:00.670Z,14.90
2022-12-25T21:01:28.433Z,14.90
2022-12-25T21:03:55.769Z,14.90
2022-12-25T21:06:24.452Z,14.90
2022-12-25T21:08:52.422Z,14.90
2022-12-25T21:11:21.623Z,14.80
2022-12-25T21:13:48.950Z,14.80
2022-12-25T21:16:17.170Z,14.80
2022-12-25T21:18:44.478Z,14.70
2022-12-25T21:21:12.962Z,14.70
2022-12-25T21:23:39.971Z,14.80
2022-12-25T21:26:13.723Z,14.80
2022-12-25T21:28:41.233Z,14.80
2022-12-25T21:31:08.576Z,14.80
2022-12-25T21:33:54.992Z,14.70
2022-12-25T21:36:30.164Z,14.60
2022-12-25T21:38:58.940Z,14.50
2022-12-25T21:41:26.216Z,14.50
2022-12-25T21:43:53.527Z,14.50
2022-12-25T21:46:20.737Z,14.50
2022-12-25T21:48:47.971Z,14.50
2022-12-25T21:51:34.673Z,14.40
2022-12-25T21:54:02.105Z,14.40
2022-12-25T21:56:36.041Z,14.30
2022-12-25T21:59:06.515Z,14.30
2022-12-25T22:01:36.998Z,14.20
2022-12-25T22:04:04.873Z,14.20
2022-12-25T22:06:50.517Z,14.20
2022-12-25T22:09:20.383Z,14.10
2022-12-25T22:12:06.605Z,14.00
2022-12-25T22:14:59.351Z,14.00
2022-12-25T22:17:45.895Z,13.90
2022-12-25T22:20:14.709Z,13.90
2022-12-25T22:22:42.325Z,13.80
2022-12-25T22:25:09.545Z,13.80
2022-12-25T22:27:38.044Z,13.70
2022-12-25T22:30:06.001Z,13.60
2022-12-25T22:32:33.048Z,13.50
2022-12-25T22:35:00.744Z,13.40
2022-12-25T22:37:27.851Z,13.30
2022-12-25T22:39:54.865Z,13.30
2022-12-25T22:42:25.984Z,13.20
2022-12-25T22:44:53.206Z,13.20
2022-12-25T22:47:20.454Z,13.20
2022-12-25T22:49:48.298Z,13.10
2022-12-25T22:52:15.409Z,13.00
2022-12-25T22:54:42.886Z,12.90
2022-12-25T22:57:10.249Z,12.90
2022-12-25T22:59:37.763Z,12.90
2022-12-25T23:02:05.553Z,12.90
2022-12-25T23:04:35.586Z,12.90
2022-12-25T23:07:05.366Z,12.90
2022-12-25T23:09:34.240Z,12.90
2022-12-25T23:12:01.905Z,12.90
2022-12-25T23:14:41.775Z,12.90
2022-12-25T23:17:33.092Z,12.90
2022-12-25T23:23:21.205Z,12.90
2022-12-25T23:29:13.015Z,12.80
2022-12-25T23:31:53.981Z,12.70
2022-12-25T23:34:32.482Z,12.70
2022-12-25T23:37:14.111Z,12.70
2022-12-25T23:39:42.245Z,12.60
2022-12-25T23:42:13.272Z,12.60
2022-12-25T23:44:40.580Z,12.50
2022-12-25T23:47:08.194Z,12.50
2022-12-25T23:49:36.445Z,12.60
2022-12-25T23:52:03.570Z,12.60
2022-12-25T23:54:31.037Z,12.50
2022-12-25T23:57:16.064Z,12.40
